Time;durP1;ratioP1;P1;durP2;ratioP2;P2;SDS_P1;SDS_P2;PMS_P1;PMS_P2;Temp;Humidity;BMP_temperature;BMP_pressure;BME280_temperature;BME280_humidity;BME280_pressure;Samples;Min_cycle;Max_cycle;Signal;HPM_P1;HPM_P2
2023/07/30 00:02:02;;;;;;;2.85;1.58;;;;;;;;;;5013387;28;20498;-55
2023/07/30 00:04:30;;;;;;;3.30;1.73;;;;;;;;;;5013508;28;20514;-56
2023/07/30 00:06:57;;;;;;;2.95;1.60;;;;;;;;;;5013639;28;20046;-57
2023/07/30 00:09:23;;;;;;;3.45;1.65;;;;;;;;;;5013895;28;20503;-57
2023/07/30 00:11:50;;;;;;;2.80;1.60;;;;;;;;;;5013505;28;20057;-57
2023/07/30 00:14:17;;;;;;;3.00;1.42;;;;;;;;;;5013537;28;20056;-57
2023/07/30 00:16:43;;;;;;;3.13;1.50;;;;;;;;;;5013581;28;20505;-56
2023/07/30 00:19:10;;;;;;;3.80;1.52;;;;;;;;;;5013546;28;20132;-58
2023/07/30 00:21:38;;;;;;;3.03;1.50;;;;;;;;;;5013515;28;20146;-51
2023/07/30 00:24:05;;;;;;;2.90;1.52;;;;;;;;;;5013243;28;20057;-56
2023/07/30 00:26:32;;;;;;;2.42;1.48;;;;;;;;;;5013509;28;20042;-57
2023/07/30 00:28:59;;;;;;;3.08;1.60;;;;;;;;;;4997655;28;20053;-54
2023/07/30 00:31:25;;;;;;;2.88;1.50;;;;;;;;;;5013226;28;20050;-54
2023/07/30 00:33:52;;;;;;;2.83;1.60;;;;;;;;;;5012397;28;20085;-56
2023/07/30 00:36:19;;;;;;;3.90;1.70;;;;;;;;;;5012724;28;20046;-55
2023/07/30 00:38:47;;;;;;;4.43;1.85;;;;;;;;;;5013564;28;20410;-58
2023/07/30 00:41:13;;;;;;;3.42;1.80;;;;;;;;;;5012713;28;20050;-58
2023/07/30 00:43:40;;;;;;;4.20;2.60;;;;;;;;;;5012959;28;20052;-53
2023/07/30 00:46:07;;;;;;;3.58;2.20;;;;;;;;;;5013698;28;20060;-56
2023/07/30 00:48:34;;;;;;;3.60;1.88;;;;;;;;;;5012496;28;20042;-56
2023/07/30 00:51:01;;;;;;;4.70;2.08;;;;;;;;;;5012470;28;20081;-55
2023/07/30 00:53:28;;;;;;;4.15;2.10;;;;;;;;;;5012984;28;20050;-56
2023/07/30 00:55:57;;;;;;;4.05;2.42;;;;;;;;;;5012975;28;20053;-56
2023/07/30 00:58:24;;;;;;;3.80;2.25;;;;;;;;;;5012767;28;20041;-59
2023/07/30 01:00:53;;;;;;;4.03;2.17;;;;;;;;;;5012090;28;21118;-57
2023/07/30 01:03:19;;;;;;;4.07;2.60;;;;;;;;;;5012062;28;20109;-55
2023/07/30 01:05:46;;;;;;;4.00;2.05;;;;;;;;;;5012819;28;20058;-51
2023/07/30 01:08:13;;;;;;;3.28;2.13;;;;;;;;;;5012671;28;20418;-54
2023/07/30 01:10:42;;;;;;;3.70;1.88;;;;;;;;;;5012429;28;20421;-51
2023/07/30 01:13:11;;;;;;;3.75;2.10;;;;;;;;;;5012525;28;20054;-58
2023/07/30 01:15:38;;;;;;;5.65;2.33;;;;;;;;;;5012536;28;20053;-56
2023/07/30 01:18:05;;;;;;;4.45;2.50;;;;;;;;;;5012878;28;20141;-57
2023/07/30 01:20:31;;;;;;;4.45;2.42;;;;;;;;;;5012435;28;20082;-56
2023/07/30 01:23:00;;;;;;;3.90;2.53;;;;;;;;;;5012467;28;20475;-55
2023/07/30 01:25:29;;;;;;;4.50;2.50;;;;;;;;;;5012711;28;20046;-54
2023/07/30 01:28:01;;;;;;;5.50;3.15;;;;;;;;;;5013027;28;20112;-56
2023/07/30 01:30:31;;;;;;;3.88;2.28;;;;;;;;;;5012275;28;20056;-58
2023/07/30 01:32:58;;;;;;;3.60;2.13;;;;;;;;;;5011883;28;20137;-55
2023/07/30 01:35:28;;;;;;;5.32;2.53;;;;;;;;;;5012112;28;20050;-54
2023/07/30 01:37:55;;;;;;;4.00;2.22;;;;;;;;;;5012093;28;20045;-58
2023/07/30 01:40:23;;;;;;;4.05;2.28;;;;;;;;;;5012006;28;20391;-55
2023/07/30 01:42:50;;;;;;;4.30;1.95;;;;;;;;;;5011478;28;20037;-56
2023/07/30 01:45:17;;;;;;;4.10;2.20;;;;;;;;;;5012449;28;20228;-58
2023/07/30 01:47:44;;;;;;;4.00;2.33;;;;;;;;;;5012109;28;20081;-54
2023/07/30 01:50:11;;;;;;;3.45;2.00;;;;;;;;;;5011906;28;20052;-56
2023/07/30 01:52:37;;;;;;;3.72;2.10;;;;;;;;;;5011627;28;20049;-56
2023/07/30 01:55:05;;;;;;;3.33;1.80;;;;;;;;;;5011998;28;20046;-56
2023/07/30 01:57:33;;;;;;;2.75;1.70;;;;;;;;;;5011603;28;20049;-58
2023/07/30 02:00:00;;;;;;;3.22;1.80;;;;;;;;;;5011547;28;20049;-57
2023/07/30 02:02:26;;;;;;;3.08;1.45;;;;;;;;;;5011104;28;20510;-55
2023/07/30 02:04:53;;;;;;;2.95;1.50;;;;;;;;;;5012037;28;20046;-54
2023/07/30 02:07:19;;;;;;;2.72;1.50;;;;;;;;;;5011875;28;20042;-58
2023/07/30 02:09:46;;;;;;;3.35;1.60;;;;;;;;;;5011365;28;20050;-56
2023/07/30 02:12:13;;;;;;;3.20;1.77;;;;;;;;;;5011139;28;20495;-56
2023/07/30 02:14:40;;;;;;;4.28;1.70;;;;;;;;;;5010833;28;20042;-56
2023/07/30 02:17:07;;;;;;;2.92;1.52;;;;;;;;;;5011688;28;20049;-57
2023/07/30 02:19:34;;;;;;;2.97;1.60;;;;;;;;;;5011575;28;20132;-55
2023/07/30 02:22:00;;;;;;;3.28;1.67;;;;;;;;;;5010955;28;20072;-55
2023/07/30 02:24:27;;;;;;;3.08;1.77;;;;;;;;;;5011034;28;20038;-55
2023/07/30 02:26:53;;;;;;;4.65;1.90;;;;;;;;;;5011690;28;20045;-56
2023/07/30 02:29:20;;;;;;;4.82;2.03;;;;;;;;;;5011283;28;20041;-57
2023/07/30 02:31:48;;;;;;;4.10;1.88;;;;;;;;;;5010965;28;20507;-55
2023/07/30 02:34:15;;;;;;;3.63;1.90;;;;;;;;;;5011483;28;20056;-53
2023/07/30 02:36:41;;;;;;;4.03;2.00;;;;;;;;;;5011311;28;20078;-53
2023/07/30 02:39:08;;;;;;;4.18;2.30;;;;;;;;;;5011424;28;20049;-53
2023/07/30 02:41:34;;;;;;;4.70;2.47;;;;;;;;;;5010921;28;20046;-54
2023/07/30 02:44:01;;;;;;;4.28;2.08;;;;;;;;;;5011441;28;20050;-56
2023/07/30 02:46:27;;;;;;;4.05;1.90;;;;;;;;;;5011233;28;20072;-57
2023/07/30 02:48:55;;;;;;;3.53;2.00;;;;;;;;;;5011471;28;20419;-53
2023/07/30 02:51:22;;;;;;;3.38;1.90;;;;;;;;;;5010968;28;20048;-57
2023/07/30 02:53:52;;;;;;;3.67;2.03;;;;;;;;;;5011181;28;20420;-56
2023/07/30 02:56:19;;;;;;;4.65;2.00;;;;;;;;;;5010834;28;20450;-57
2023/07/30 02:58:46;;;;;;;4.13;2.22;;;;;;;;;;5011357;28;20141;-57
2023/07/30 03:01:12;;;;;;;4.30;2.15;;;;;;;;;;5010996;28;20037;-58
2023/07/30 03:03:39;;;;;;;3.58;2.33;;;;;;;;;;5010820;28;20136;-56
2023/07/30 03:06:07;;;;;;;3.60;1.95;;;;;;;;;;5010946;28;20046;-55
2023/07/30 03:08:35;;;;;;;3.97;2.15;;;;;;;;;;5011298;28;20121;-54
2023/07/30 03:11:02;;;;;;;3.28;1.88;;;;;;;;;;5010844;28;20065;-59
2023/07/30 03:13:29;;;;;;;3.55;2.08;;;;;;;;;;5011222;28;20049;-52
2023/07/30 03:15:56;;;;;;;3.55;2.10;;;;;;;;;;5014483;28;20073;-52
2023/07/30 03:18:22;;;;;;;3.63;2.10;;;;;;;;;;5014969;28;20054;-52
2023/07/30 03:20:49;;;;;;;4.53;2.17;;;;;;;;;;5014655;28;20046;-57
2023/07/30 03:23:17;;;;;;;3.83;2.40;;;;;;;;;;5014255;28;20048;-55
2023/07/30 03:25:43;;;;;;;3.60;1.80;;;;;;;;;;5014943;28;20406;-58
2023/07/30 03:28:10;;;;;;;3.53;2.20;;;;;;;;;;5015094;28;20057;-56
2023/07/30 03:30:36;;;;;;;4.22;2.38;;;;;;;;;;5014643;28;20388;-56
2023/07/30 03:33:03;;;;;;;4.38;2.33;;;;;;;;;;5014175;28;20060;-55
2023/07/30 03:35:30;;;;;;;4.40;2.15;;;;;;;;;;5014487;28;20132;-59
2023/07/30 03:37:56;;;;;;;4.53;2.28;;;;;;;;;;5014073;28;20053;-52
2023/07/30 03:40:24;;;;;;;4.43;2.58;;;;;;;;;;5014275;28;20046;-55
2023/07/30 03:42:52;;;;;;;4.25;2.35;;;;;;;;;;5013552;28;20049;-55
2023/07/30 03:45:18;;;;;;;3.83;2.50;;;;;;;;;;5014179;28;20422;-59
2023/07/30 03:47:45;;;;;;;6.32;2.60;;;;;;;;;;5013694;28;20049;-58
2023/07/30 03:50:11;;;;;;;4.40;2.60;;;;;;;;;;5013976;28;20084;-56
2023/07/30 03:52:38;;;;;;;4.03;2.35;;;;;;;;;;5014004;28;20068;-52
2023/07/30 03:55:05;;;;;;;4.03;2.17;;;;;;;;;;5014043;28;20050;-55
2023/07/30 03:57:33;;;;;;;4.22;2.58;;;;;;;;;;5013682;28;20137;-54
2023/07/30 04:00:00;;;;;;;5.65;3.13;;;;;;;;;;5013739;28;20057;-55
2023/07/30 04:02:27;;;;;;;4.55;2.60;;;;;;;;;;5013530;28;20068;-56
2023/07/30 04:04:53;;;;;;;4.45;2.30;;;;;;;;;;5013048;28;20045;-54
2023/07/30 04:07:20;;;;;;;4.18;2.40;;;;;;;;;;5013490;28;20054;-57
2023/07/30 04:09:47;;;;;;;3.80;2.50;;;;;;;;;;5012427;28;20396;-56
2023/07/30 04:12:13;;;;;;;3.53;2.30;;;;;;;;;;5013435;28;20046;-54
2023/07/30 04:14:41;;;;;;;4.70;2.70;;;;;;;;;;5008243;28;20054;-57
2023/07/30 04:17:08;;;;;;;5.45;2.28;;;;;;;;;;5013597;28;20081;-56
2023/07/30 04:19:34;;;;;;;3.70;2.30;;;;;;;;;;5013079;28;20060;-55
2023/07/30 04:22:01;;;;;;;3.83;2.70;;;;;;;;;;5013331;28;20420;-57
2023/07/30 04:24:28;;;;;;;4.35;2.53;;;;;;;;;;5013633;28;20044;-54
2023/07/30 04:26:54;;;;;;;4.85;2.15;;;;;;;;;;5012702;28;20056;-53
2023/07/30 04:29:21;;;;;;;3.67;2.10;;;;;;;;;;5013316;28;20046;-55
2023/07/30 04:31:49;;;;;;;4.45;2.42;;;;;;;;;;5013214;28;20049;-51
2023/07/30 04:34:15;;;;;;;4.72;2.47;;;;;;;;;;5013431;28;20050;-57
2023/07/30 04:36:42;;;;;;;3.45;2.00;;;;;;;;;;5012673;28;20046;-56
2023/07/30 04:39:08;;;;;;;3.58;2.10;;;;;;;;;;5013013;28;20050;-55
2023/07/30 04:41:35;;;;;;;4.22;1.90;;;;;;;;;;5012897;28;20053;-57
2023/07/30 04:44:02;;;;;;;4.78;2.03;;;;;;;;;;5012983;28;20038;-54
2023/07/30 04:46:29;;;;;;;3.97;2.08;;;;;;;;;;5012612;28;20046;-53
2023/07/30 04:48:57;;;;;;;3.28;2.10;;;;;;;;;;5012988;28;20053;-58
2023/07/30 04:51:24;;;;;;;3.88;2.08;;;;;;;;;;5012639;28;20041;-54
2023/07/30 04:53:50;;;;;;;4.25;2.42;;;;;;;;;;5013156;28;20046;-56
2023/07/30 04:56:17;;;;;;;4.43;2.22;;;;;;;;;;5012467;28;20049;-55
2023/07/30 04:58:44;;;;;;;3.65;2.00;;;;;;;;;;5013035;28;20053;-56
2023/07/30 05:01:10;;;;;;;3.45;2.10;;;;;;;;;;5012464;28;20046;-58
2023/07/30 05:03:37;;;;;;;3.40;2.10;;;;;;;;;;5012518;28;20484;-57
2023/07/30 05:06:05;;;;;;;3.58;1.98;;;;;;;;;;5012737;28;20479;-53
2023/07/30 05:08:31;;;;;;;3.60;1.80;;;;;;;;;;5012858;28;20050;-55
2023/07/30 05:10:58;;;;;;;3.90;1.88;;;;;;;;;;5012472;28;20052;-54
2023/07/30 05:13:25;;;;;;;3.35;2.00;;;;;;;;;;5012619;28;20050;-52
2023/07/30 05:15:51;;;;;;;4.03;2.33;;;;;;;;;;5012319;28;20042;-54
2023/07/30 05:18:18;;;;;;;3.45;2.00;;;;;;;;;;5012714;28;20084;-53
2023/07/30 05:20:46;;;;;;;3.60;1.80;;;;;;;;;;5012993;28;20050;-54
2023/07/30 05:23:15;;;;;;;3.78;2.10;;;;;;;;;;5012966;28;20068;-50
2023/07/30 05:25:41;;;;;;;2.85;1.90;;;;;;;;;;5012696;28;20041;-56
2023/07/30 05:28:08;;;;;;;3.88;2.10;;;;;;;;;;5012459;28;20046;-55
2023/07/30 05:30:34;;;;;;;3.38;2.13;;;;;;;;;;5012755;28;20073;-56
2023/07/30 05:33:01;;;;;;;3.88;1.85;;;;;;;;;;5029345;22;20064;-76
2023/07/30 05:35:27;;;;;;;4.05;2.00;;;;;;;;;;5032279;28;20136;-76
2023/07/30 05:37:54;;;;;;;3.22;2.00;;;;;;;;;;5030648;28;20042;-76
2023/07/30 05:40:22;;;;;;;3.90;2.00;;;;;;;;;;5031965;28;20072;-76
2023/07/30 05:42:49;;;;;;;3.25;1.92;;;;;;;;;;5031475;28;20050;-76
2023/07/30 05:45:16;;;;;;;3.38;1.75;;;;;;;;;;5031875;28;20459;-76
2023/07/30 05:47:42;;;;;;;3.58;1.80;;;;;;;;;;5030548;28;20055;-76
2023/07/30 05:50:09;;;;;;;3.55;1.95;;;;;;;;;;5031150;28;20050;-76
2023/07/30 05:52:36;;;;;;;4.35;2.30;;;;;;;;;;5031228;28;20050;-76
2023/07/30 05:55:02;;;;;;;4.40;2.22;;;;;;;;;;5031319;28;20045;-77
2023/07/30 05:57:31;;;;;;;3.80;1.95;;;;;;;;;;5031211;28;20411;-76
2023/07/30 05:59:57;;;;;;;4.15;2.15;;;;;;;;;;5031576;28;20399;-76
2023/07/30 06:02:24;;;;;;;3.63;1.90;;;;;;;;;;5031032;28;20049;-76
2023/07/30 06:04:50;;;;;;;3.63;1.95;;;;;;;;;;5031406;28;20053;-77
2023/07/30 06:07:17;;;;;;;3.60;2.10;;;;;;;;;;5031596;28;20054;-76
2023/07/30 06:09:45;;;;;;;3.38;1.92;;;;;;;;;;5031466;28;20041;-75
2023/07/30 06:12:11;;;;;;;3.80;1.90;;;;;;;;;;5030801;28;20037;-76
2023/07/30 06:14:39;;;;;;;3.90;1.90;;;;;;;;;;5031727;28;20076;-75
2023/07/30 06:17:06;;;;;;;3.50;2.03;;;;;;;;;;5031375;28;20056;-76
2023/07/30 06:19:33;;;;;;;3.53;2.22;;;;;;;;;;5030905;28;20045;-75
2023/07/30 06:21:59;;;;;;;4.35;2.13;;;;;;;;;;5030035;28;20050;-75
2023/07/30 06:24:26;;;;;;;3.55;1.73;;;;;;;;;;5031234;28;20458;-75
2023/07/30 06:26:52;;;;;;;3.97;2.03;;;;;;;;;;5031352;28;20055;-76
2023/07/30 06:29:19;;;;;;;3.70;2.15;;;;;;;;;;5031921;28;20133;-76
2023/07/30 06:31:47;;;;;;;3.65;1.95;;;;;;;;;;5031159;28;20293;-74
2023/07/30 06:34:14;;;;;;;3.60;1.77;;;;;;;;;;5029832;28;20527;-73
2023/07/30 06:36:41;;;;;;;3.13;1.90;;;;;;;;;;5030678;28;20052;-75
2023/07/30 06:39:07;;;;;;;4.13;1.98;;;;;;;;;;5031217;28;20092;-75
2023/07/30 06:41:34;;;;;;;3.60;1.92;;;;;;;;;;5031864;28;20400;-75
2023/07/30 06:44:00;;;;;;;3.20;1.63;;;;;;;;;;5031235;28;20045;-75
2023/07/30 06:46:27;;;;;;;3.10;1.85;;;;;;;;;;5031790;28;20077;-75
2023/07/30 06:48:55;;;;;;;3.47;2.10;;;;;;;;;;5032170;28;20049;-75
2023/07/30 06:51:25;;;;;;;3.90;1.95;;;;;;;;;;5035588;28;20512;-75
2023/07/30 06:53:51;;;;;;;3.20;1.90;;;;;;;;;;5034902;28;20045;-75
2023/07/30 06:56:21;;;;;;;3.33;1.80;;;;;;;;;;5035752;28;20053;-75
2023/07/30 06:58:47;;;;;;;3.03;1.83;;;;;;;;;;5034654;28;20052;-75
2023/07/30 07:01:14;;;;;;;3.17;1.88;;;;;;;;;;5034530;28;20076;-74
2023/07/30 07:03:40;;;;;;;3.38;1.90;;;;;;;;;;5034255;28;20049;-74
2023/07/30 07:06:08;;;;;;;3.88;1.77;;;;;;;;;;5035029;28;20053;-76
2023/07/30 07:08:35;;;;;;;3.25;1.67;;;;;;;;;;5034647;28;20496;-75
2023/07/30 07:11:02;;;;;;;3.80;2.00;;;;;;;;;;5028946;28;20064;-75
2023/07/30 07:13:28;;;;;;;2.78;1.75;;;;;;;;;;5034566;28;20049;-75
2023/07/30 07:15:55;;;;;;;2.90;1.83;;;;;;;;;;5034533;28;20439;-75
2023/07/30 07:18:21;;;;;;;3.80;1.80;;;;;;;;;;5034489;28;20048;-77
2023/07/30 07:20:48;;;;;;;3.80;2.05;;;;;;;;;;5035105;28;20049;-77
2023/07/30 07:23:16;;;;;;;3.20;1.70;;;;;;;;;;5035140;28;20128;-77
2023/07/30 07:25:42;;;;;;;3.45;1.90;;;;;;;;;;5036995;28;20049;-77
2023/07/30 07:28:09;;;;;;;3.30;1.90;;;;;;;;;;5037469;28;20396;-79
2023/07/30 07:30:36;;;;;;;3.03;1.70;;;;;;;;;;5037022;28;20500;-82
2023/07/30 07:33:05;;;;;;;3.85;1.80;;;;;;;;;;5039023;28;20103;-79
2023/07/30 07:35:32;;;;;;;4.97;2.30;;;;;;;;;;5037792;28;20056;-83
2023/07/30 07:37:58;;;;;;;4.05;2.47;;;;;;;;;;5038065;28;20053;-84
2023/07/30 07:40:26;;;;;;;3.88;1.92;;;;;;;;;;5036823;28;20067;-80
2023/07/30 07:42:53;;;;;;;4.57;2.25;;;;;;;;;;5034211;28;20136;-77
2023/07/30 07:45:19;;;;;;;4.18;2.00;;;;;;;;;;5034502;28;20052;-77
2023/07/30 07:47:46;;;;;;;4.43;1.90;;;;;;;;;;5033984;28;20132;-76
2023/07/30 07:50:13;;;;;;;2.95;1.67;;;;;;;;;;5036358;28;20038;-79
2023/07/30 07:52:40;;;;;;;3.55;2.10;;;;;;;;;;5039381;28;20046;-78
2023/07/30 07:55:08;;;;;;;3.22;1.88;;;;;;;;;;5038892;28;20050;-78
2023/07/30 07:57:36;;;;;;;3.50;1.70;;;;;;;;;;5036455;28;20067;-79
2023/07/30 08:00:05;;;;;;;3.53;1.73;;;;;;;;;;5034769;28;20041;-77
2023/07/30 08:02:31;;;;;;;3.20;1.58;;;;;;;;;;5036456;28;20068;-78
2023/07/30 08:04:58;;;;;;;3.38;1.52;;;;;;;;;;5034150;28;20103;-76
2023/07/30 08:07:24;;;;;;;3.05;1.95;;;;;;;;;;5036726;28;20424;-76
2023/07/30 08:09:52;;;;;;;3.33;1.73;;;;;;;;;;5044739;28;20508;-77
2023/07/30 08:12:20;;;;;;;3.67;1.80;;;;;;;;;;5042315;28;20057;-76
2023/07/30 08:14:48;;;;;;;3.80;1.90;;;;;;;;;;5042351;28;20128;-77
2023/07/30 08:17:14;;;;;;;3.30;1.60;;;;;;;;;;5034705;28;20046;-78
2023/07/30 08:19:41;;;;;;;2.63;1.58;;;;;;;;;;5034705;28;20049;-77
2023/07/30 08:22:07;;;;;;;2.95;1.60;;;;;;;;;;5034456;28;20049;-77
2023/07/30 08:24:34;;;;;;;2.95;1.50;;;;;;;;;;5034445;28;20042;-77
2023/07/30 08:27:00;;;;;;;3.20;1.50;;;;;;;;;;5034733;28;20041;-77
2023/07/30 08:29:27;;;;;;;2.78;1.55;;;;;;;;;;5038619;28;20064;-77
2023/07/30 08:31:55;;;;;;;2.70;1.58;;;;;;;;;;5044946;28;20049;-77
2023/07/30 08:34:22;;;;;;;2.67;1.50;;;;;;;;;;5044942;28;20419;-77
2023/07/30 08:36:49;;;;;;;2.47;1.30;;;;;;;;;;5044595;28;20499;-77
2023/07/30 08:39:15;;;;;;;3.25;1.85;;;;;;;;;;5037370;28;20052;-77
2023/07/30 08:41:42;;;;;;;3.83;1.88;;;;;;;;;;5035618;28;20042;-77
2023/07/30 08:44:10;;;;;;;2.72;1.42;;;;;;;;;;5035084;28;20109;-77
2023/07/30 08:46:37;;;;;;;2.95;1.55;;;;;;;;;;5034565;28;20108;-77
2023/07/30 08:49:17;;;;;;;3.50;1.52;;;;;;;;;;5036488;28;20045;-77
2023/07/30 08:51:44;;;;;;;2.78;1.50;;;;;;;;;;5034600;28;20050;-77
2023/07/30 08:54:12;;;;;;;2.67;1.60;;;;;;;;;;5035653;28;20144;-77
2023/07/30 08:56:39;;;;;;;2.78;1.48;;;;;;;;;;5034491;28;20053;-77
2023/07/30 08:59:07;;;;;;;2.35;1.40;;;;;;;;;;5035139;28;20045;-76
2023/07/30 09:01:40;;;;;;;2.90;1.60;;;;;;;;;;5036159;28;20124;-77
2023/07/30 09:04:08;;;;;;;2.67;1.50;;;;;;;;;;5036276;28;20049;-76
2023/07/30 09:06:35;;;;;;;2.90;1.70;;;;;;;;;;5034281;28;20411;-77
2023/07/30 09:09:02;;;;;;;3.85;1.52;;;;;;;;;;5033452;28;20056;-77
2023/07/30 09:11:29;;;;;;;3.22;1.73;;;;;;;;;;5033174;28;20049;-77
2023/07/30 09:13:56;;;;;;;2.90;1.40;;;;;;;;;;5033275;28;20403;-77
2023/07/30 09:16:26;;;;;;;2.35;1.30;;;;;;;;;;5033385;28;20056;-77
2023/07/30 09:18:53;;;;;;;2.42;1.40;;;;;;;;;;5033399;28;20043;-77
2023/07/30 09:21:30;;;;;;;3.22;1.40;;;;;;;;;;5033120;28;20046;-76
2023/07/30 09:23:57;;;;;;;2.45;1.33;;;;;;;;;;5034749;28;20053;-77
2023/07/30 09:26:24;;;;;;;2.25;1.30;;;;;;;;;;5035321;28;20072;-77
2023/07/30 09:28:50;;;;;;;2.70;1.40;;;;;;;;;;5034453;28;20049;-77
2023/07/30 09:31:17;;;;;;;3.20;1.60;;;;;;;;;;5040961;28;20069;-77
2023/07/30 09:33:43;;;;;;;3.00;1.42;;;;;;;;;;5040765;28;20072;-77
2023/07/30 09:36:10;;;;;;;2.80;1.30;;;;;;;;;;5034602;28;20124;-77
2023/07/30 09:38:42;;;;;;;3.28;1.63;;;;;;;;;;5035345;28;20045;-77
2023/07/30 09:41:11;;;;;;;2.58;1.60;;;;;;;;;;5036094;28;20132;-77
2023/07/30 09:43:37;;;;;;;2.67;1.33;;;;;;;;;;5035107;28;20459;-77
2023/07/30 09:46:06;;;;;;;3.38;1.60;;;;;;;;;;5034526;28;20045;-77
2023/07/30 09:48:34;;;;;;;2.57;1.60;;;;;;;;;;5034371;28;20132;-76
2023/07/30 09:51:03;;;;;;;3.20;1.58;;;;;;;;;;5032668;28;20294;-77
2023/07/30 09:53:34;;;;;;;3.28;1.52;;;;;;;;;;5033128;28;20057;-76
2023/07/30 09:56:02;;;;;;;2.67;1.55;;;;;;;;;;5032479;28;20053;-76
2023/07/30 09:58:29;;;;;;;2.22;1.13;;;;;;;;;;5031935;28;20594;-76
2023/07/30 10:00:58;;;;;;;2.83;1.23;;;;;;;;;;5031926;28;20049;-76
2023/07/30 10:03:25;;;;;;;1.90;1.25;;;;;;;;;;5031729;28;20045;-76
2023/07/30 10:05:55;;;;;;;3.00;1.60;;;;;;;;;;5027120;28;20042;-76
2023/07/30 10:08:24;;;;;;;;;;;;;;;;;;5028895;28;20296;-76
2023/07/30 10:10:51;;;;;;;2.47;1.38;;;;;;;;;;5028527;28;19929;-77
2023/07/30 10:13:20;;;;;;;2.95;1.48;;;;;;;;;;5029117;28;20049;-77
2023/07/30 10:15:47;;;;;;;4.15;1.90;;;;;;;;;;5029723;28;20176;-77
2023/07/30 10:18:14;;;;;;;2.63;1.38;;;;;;;;;;5029562;28;20394;-77
2023/07/30 10:20:41;;;;;;;3.38;1.75;;;;;;;;;;5030190;28;20137;-76
2023/07/30 10:23:08;;;;;;;2.38;1.35;;;;;;;;;;5029935;28;20068;-77
2023/07/30 10:25:45;;;;;;;2.33;1.70;;;;;;;;;;5025840;28;20053;-75
2023/07/30 10:28:27;;;;;;;3.38;1.52;;;;;;;;;;5030150;28;20053;-76
2023/07/30 10:30:57;;;;;;;3.10;1.33;;;;;;;;;;5028968;28;20467;-76
2023/07/30 10:33:23;;;;;;;2.70;1.50;;;;;;;;;;5029782;28;20045;-77
2023/07/30 10:35:55;;;;;;;4.05;2.25;;;;;;;;;;5028917;28;20430;-77
2023/07/30 10:38:28;;;;;;;3.13;1.58;;;;;;;;;;5029471;28;20057;-77
2023/07/30 10:41:02;;;;;;;2.33;1.30;;;;;;;;;;5029448;28;20076;-77
2023/07/30 10:43:31;;;;;;;2.70;1.30;;;;;;;;;;5029915;28;20053;-76
2023/07/30 10:45:58;;;;;;;2.80;1.38;;;;;;;;;;5028016;28;20041;-75
2023/07/30 10:48:35;;;;;;;2.85;1.50;;;;;;;;;;5028618;28;20053;-77
2023/07/30 10:51:03;;;;;;;2.75;1.40;;;;;;;;;;5027699;28;20077;-76
2023/07/30 10:53:29;;;;;;;2.63;1.33;;;;;;;;;;5028037;28;20076;-77
2023/07/30 10:56:00;;;;;;;3.58;1.70;;;;;;;;;;5028290;28;20046;-75
2023/07/30 10:58:27;;;;;;;3.90;2.17;;;;;;;;;;5028390;28;20045;-76
2023/07/30 11:00:56;;;;;;;3.42;1.90;;;;;;;;;;5028175;28;20045;-76
2023/07/30 11:03:25;;;;;;;2.80;1.38;;;;;;;;;;5028049;28;20046;-77
2023/07/30 11:05:52;;;;;;;2.92;1.40;;;;;;;;;;5027853;28;20447;-77
2023/07/30 11:08:19;;;;;;;2.83;1.50;;;;;;;;;;5028262;28;20133;-75
2023/07/30 11:10:47;;;;;;;2.75;1.60;;;;;;;;;;5027960;28;20515;-77
2023/07/30 11:13:14;;;;;;;2.90;1.55;;;;;;;;;;5028531;28;20049;-76
2023/07/30 11:15:44;;;;;;;3.33;1.75;;;;;;;;;;5025568;28;20456;-77
2023/07/30 11:18:12;;;;;;;;;;;;;;;;;;5029588;28;20530;-77
2023/07/30 11:20:39;;;;;;;2.78;1.67;;;;;;;;;;5029658;28;20034;-77
2023/07/30 11:23:19;;;;;;;2.22;1.20;;;;;;;;;;5031642;28;20514;-76
2023/07/30 11:25:50;;;;;;;3.30;1.38;;;;;;;;;;5028167;28;20045;-76
2023/07/30 11:28:28;;;;;;;2.70;1.45;;;;;;;;;;5027615;28;20462;-75
2023/07/30 11:30:54;;;;;;;3.50;2.00;;;;;;;;;;5026849;28;20077;-76
2023/07/30 11:33:22;;;;;;;3.50;1.88;;;;;;;;;;5052110;22;20050;-82
2023/07/30 11:35:49;;;;;;;3.47;1.75;;;;;;;;;;4996459;28;20043;-81
2023/07/30 11:38:16;;;;;;;3.22;1.42;;;;;;;;;;5000037;28;20054;-80
2023/07/30 11:40:44;;;;;;;2.25;1.20;;;;;;;;;;4999938;28;20042;-81
2023/07/30 11:43:11;;;;;;;3.42;1.80;;;;;;;;;;4999861;28;20070;-81
2023/07/30 11:45:37;;;;;;;2.88;1.38;;;;;;;;;;4998914;28;20043;-81
2023/07/30 11:48:09;;;;;;;2.47;1.30;;;;;;;;;;5000601;28;20527;-81
2023/07/30 11:50:51;;;;;;;2.47;1.40;;;;;;;;;;5002273;28;20050;-81
2023/07/30 11:53:19;;;;;;;2.90;1.52;;;;;;;;;;5001592;28;20057;-81
2023/07/30 11:55:46;;;;;;;2.53;1.13;;;;;;;;;;5001247;28;20046;-81
2023/07/30 11:58:13;;;;;;;2.70;1.40;;;;;;;;;;4999337;28;20050;-82
2023/07/30 12:00:41;;;;;;;2.90;1.20;;;;;;;;;;5000826;28;20053;-81
2023/07/30 12:03:12;;;;;;;2.50;1.38;;;;;;;;;;4999796;28;20047;-82
2023/07/30 12:05:39;;;;;;;3.10;1.30;;;;;;;;;;5000317;28;20057;-80
2023/07/30 12:08:14;;;;;;;2.92;1.38;;;;;;;;;;5001786;28;20046;-82
2023/07/30 12:10:45;;;;;;;2.10;1.30;;;;;;;;;;4999937;28;20058;-79
2023/07/30 12:13:17;;;;;;;2.75;1.30;;;;;;;;;;5000956;28;20058;-80
2023/07/30 12:15:45;;;;;;;3.03;1.33;;;;;;;;;;4995897;28;20046;-81
2023/07/30 12:18:12;;;;;;;2.95;1.30;;;;;;;;;;5004849;28;20085;-80
2023/07/30 12:20:38;;;;;;;2.63;1.40;;;;;;;;;;4999642;28;20042;-81
2023/07/30 12:23:06;;;;;;;2.70;1.45;;;;;;;;;;4998057;28;20050;-81
2023/07/30 12:25:33;;;;;;;2.53;1.67;;;;;;;;;;4994204;28;20290;-81
2023/07/30 12:27:59;;;;;;;3.15;1.50;;;;;;;;;;4997841;28;20047;-81
2023/07/30 12:30:27;;;;;;;2.85;1.40;;;;;;;;;;4994070;28;20054;-81
2023/07/30 12:32:54;;;;;;;2.70;1.60;;;;;;;;;;4998422;28;20050;-81
2023/07/30 12:35:20;;;;;;;2.72;1.40;;;;;;;;;;4994435;28;20088;-80
2023/07/30 12:37:47;;;;;;;3.42;1.33;;;;;;;;;;4998693;28;20053;-81
2023/07/30 12:40:15;;;;;;;2.72;1.50;;;;;;;;;;4998538;28;20053;-81
2023/07/30 12:42:41;;;;;;;3.08;1.85;;;;;;;;;;4998947;28;20054;-81
2023/07/30 12:45:09;;;;;;;3.17;1.67;;;;;;;;;;4998149;28;20428;-80
2023/07/30 12:47:36;;;;;;;2.50;1.48;;;;;;;;;;4998264;28;20359;-81
2023/07/30 12:50:03;;;;;;;2.92;1.50;;;;;;;;;;4998541;28;20070;-81
2023/07/30 12:52:30;;;;;;;4.30;1.75;;;;;;;;;;4997946;28;20058;-80
2023/07/30 12:54:56;;;;;;;2.85;1.65;;;;;;;;;;4998374;28;20137;-81
2023/07/30 12:57:24;;;;;;;4.07;1.75;;;;;;;;;;5000421;28;20101;-81
2023/07/30 12:59:51;;;;;;;3.40;1.75;;;;;;;;;;4997002;28;20240;-81
2023/07/30 13:02:18;;;;;;;3.60;1.80;;;;;;;;;;4996241;28;20489;-81
2023/07/30 13:04:44;;;;;;;4.85;1.80;;;;;;;;;;4996317;28;20133;-80
2023/07/30 13:07:11;;;;;;;3.42;1.48;;;;;;;;;;4996737;28;20050;-81
2023/07/30 13:09:37;;;;;;;4.05;1.75;;;;;;;;;;4997110;28;20130;-81
2023/07/30 13:12:05;;;;;;;2.90;1.50;;;;;;;;;;4997810;28;20053;-81
2023/07/30 13:14:32;;;;;;;2.83;1.50;;;;;;;;;;4999666;28;20057;-80
2023/07/30 13:16:59;;;;;;;3.60;1.40;;;;;;;;;;5001436;28;20054;-81
2023/07/30 13:19:28;;;;;;;3.53;1.55;;;;;;;;;;4996805;28;20047;-81
2023/07/30 13:21:54;;;;;;;3.75;1.50;;;;;;;;;;4999532;28;20062;-80
2023/07/30 13:24:21;;;;;;;2.88;1.50;;;;;;;;;;5000914;28;20050;-81
2023/07/30 13:26:47;;;;;;;3.33;1.85;;;;;;;;;;5001889;28;20100;-80
2023/07/30 13:29:14;;;;;;;3.03;1.80;;;;;;;;;;5012800;28;20122;-80
2023/07/30 13:31:42;;;;;;;3.47;1.75;;;;;;;;;;5011007;28;20326;-84
2023/07/30 13:34:08;;;;;;;4.07;1.90;;;;;;;;;;5015217;28;20068;-87
2023/07/30 13:36:37;;;;;;;3.40;1.70;;;;;;;;;;5015319;28;20048;-84
2023/07/30 13:39:04;;;;;;;4.20;1.90;;;;;;;;;;5014138;28;20058;-82
2023/07/30 13:41:31;;;;;;;4.45;1.77;;;;;;;;;;5012917;28;20280;-80
2023/07/30 13:43:57;;;;;;;3.25;1.77;;;;;;;;;;5011807;28;20046;-80
2023/07/30 13:46:24;;;;;;;4.13;1.80;;;;;;;;;;5012475;28;20034;-80
2023/07/30 13:48:52;;;;;;;4.82;2.58;;;;;;;;;;5012603;28;20054;-81
2023/07/30 13:51:18;;;;;;;3.90;1.90;;;;;;;;;;5011846;28;20058;-77
2023/07/30 13:53:45;;;;;;;4.28;1.98;;;;;;;;;;5009941;28;20026;-80
2023/07/30 13:56:11;;;;;;;4.55;1.98;;;;;;;;;;5011516;28;20034;-80
2023/07/30 13:58:39;;;;;;;3.63;2.20;;;;;;;;;;5014245;28;20038;-81
2023/07/30 14:01:08;;;;;;;4.15;2.40;;;;;;;;;;5014510;28;20060;-80
2023/07/30 14:03:35;;;;;;;4.53;2.08;;;;;;;;;;5009023;28;20065;-80
2023/07/30 14:06:03;;;;;;;3.22;1.80;;;;;;;;;;4997303;28;20516;-80
2023/07/30 14:08:29;;;;;;;3.42;1.90;;;;;;;;;;4997600;28;20436;-80
2023/07/30 14:10:57;;;;;;;3.38;1.70;;;;;;;;;;4997807;28;20416;-79
2023/07/30 14:13:24;;;;;;;2.78;1.50;;;;;;;;;;4997087;28;20056;-80
2023/07/30 14:15:50;;;;;;;3.25;1.75;;;;;;;;;;4996876;28;20057;-77
2023/07/30 14:18:17;;;;;;;2.95;1.70;;;;;;;;;;4997816;28;20052;-80
2023/07/30 14:20:43;;;;;;;3.00;1.55;;;;;;;;;;4996337;28;20420;-78
2023/07/30 14:23:11;;;;;;;3.70;1.95;;;;;;;;;;4990395;28;20057;-80
2023/07/30 14:25:38;;;;;;;2.72;1.60;;;;;;;;;;4992571;28;20063;-77
2023/07/30 14:28:05;;;;;;;3.33;1.70;;;;;;;;;;4989205;28;20061;-79
2023/07/30 14:30:32;;;;;;;2.78;1.65;;;;;;;;;;4992735;28;20051;-79
2023/07/30 14:32:59;;;;;;;2.55;1.60;;;;;;;;;;4989286;28;20082;-80
2023/07/30 14:35:26;;;;;;;2.75;1.67;;;;;;;;;;4993461;28;20432;-78
2023/07/30 14:37:52;;;;;;;3.00;1.63;;;;;;;;;;4993155;28;20421;-80
2023/07/30 14:40:21;;;;;;;2.95;1.83;;;;;;;;;;4994266;28;20050;-79
2023/07/30 14:42:48;;;;;;;3.03;1.70;;;;;;;;;;4993625;28;20050;-79
2023/07/30 14:45:15;;;;;;;2.88;1.60;;;;;;;;;;4993712;28;20288;-79